Ben Lomond, California
Current Conditions -  °F | °C
As of 4:53 PM on Wednesday 22 Oct 2014 (Local Time) from KWVI Reporting Station
Clear Clear  
Wind Chill: 76°   Ceiling: Unl
Heat Index: 76°   Visibility: 10mi
Dew Point: 43°   Wind: 5mph
Humidity: 31%   Direction: 230°SW
Pressure: 30"   Gusts: NA
Location:  37.09°N, 122.09°W
Report Text: KWVI 222353Z AUTO 23004KT 10SM CLR 24/06 A3000 RMK AO2 SLP158 T02440061 10256 20194
Loading
Personal Weather Stations






























Interactive Weather Map
Tropical Storm Tracking
New forecast layout! Learn more

10-Day Weather Forecast

Advertisements
Track Severe Weather on mobile